sensor_id;sensor_type;location;lat;lon;timestamp;temperature;humidity
19060;DHT22;9663;48.996;8.334;2024-02-21T00:02:16;12.10;58.10
19060;DHT22;9663;48.996;8.334;2024-02-21T00:04:43;12.10;58.10
19060;DHT22;9663;48.996;8.334;2024-02-21T00:07:09;12.10;58.00
19060;DHT22;9663;48.996;8.334;2024-02-21T00:09:35;12.10;58.00
19060;DHT22;9663;48.996;8.334;2024-02-21T00:12:00;12.10;58.00
19060;DHT22;9663;48.996;8.334;2024-02-21T00:14:26;12.10;58.00
19060;DHT22;9663;48.996;8.334;2024-02-21T00:16:52;12.10;58.00
19060;DHT22;9663;48.996;8.334;2024-02-21T00:19:17;12.10;58.00
19060;DHT22;9663;48.996;8.334;2024-02-21T00:21:43;12.20;58.00
19060;DHT22;9663;48.996;8.334;2024-02-21T00:24:09;12.10;58.00
19060;DHT22;9663;48.996;8.334;2024-02-21T00:26:34;12.20;58.00
19060;DHT22;9663;48.996;8.334;2024-02-21T00:29:00;12.20;58.00
19060;DHT22;9663;48.996;8.334;2024-02-21T00:31:26;12.20;58.00
19060;DHT22;9663;48.996;8.334;2024-02-21T00:33:51;12.20;58.00
19060;DHT22;9663;48.996;8.334;2024-02-21T00:36:17;12.20;57.90
19060;DHT22;9663;48.996;8.334;2024-02-21T00:38:43;12.20;57.90
19060;DHT22;9663;48.996;8.334;2024-02-21T00:41:08;12.20;57.90
19060;DHT22;9663;48.996;8.334;2024-02-21T00:43:34;12.30;57.90
19060;DHT22;9663;48.996;8.334;2024-02-21T00:46:00;12.30;57.90
19060;DHT22;9663;48.996;8.334;2024-02-21T00:48:25;12.30;57.90
19060;DHT22;9663;48.996;8.334;2024-02-21T00:50:51;12.30;57.90
19060;DHT22;9663;48.996;8.334;2024-02-21T00:53:17;12.40;57.90
19060;DHT22;9663;48.996;8.334;2024-02-21T00:55:43;12.40;57.80
19060;DHT22;9663;48.996;8.334;2024-02-21T00:58:09;12.40;57.80
19060;DHT22;9663;48.996;8.334;2024-02-21T01:00:34;12.40;57.90
19060;DHT22;9663;48.996;8.334;2024-02-21T01:03:00;12.40;57.90
19060;DHT22;9663;48.996;8.334;2024-02-21T01:05:26;12.40;57.90
19060;DHT22;9663;48.996;8.334;2024-02-21T01:07:53;12.40;58.30
19060;DHT22;9663;48.996;8.334;2024-02-21T01:10:19;12.40;58.00
19060;DHT22;9663;48.996;8.334;2024-02-21T01:12:44;12.40;58.10
19060;DHT22;9663;48.996;8.334;2024-02-21T01:15:10;12.40;58.10
19060;DHT22;9663;48.996;8.334;2024-02-21T01:17:37;12.30;58.10
19060;DHT22;9663;48.996;8.334;2024-02-21T01:20:03;12.30;58.80
19060;DHT22;9663;48.996;8.334;2024-02-21T01:22:31;12.20;58.20
19060;DHT22;9663;48.996;8.334;2024-02-21T01:24:56;12.20;58.40
19060;DHT22;9663;48.996;8.334;2024-02-21T01:27:22;12.20;58.40
19060;DHT22;9663;48.996;8.334;2024-02-21T01:29:48;12.10;58.40
19060;DHT22;9663;48.996;8.334;2024-02-21T01:32:15;12.10;58.50
19060;DHT22;9663;48.996;8.334;2024-02-21T01:34:41;12.10;58.50
19060;DHT22;9663;48.996;8.334;2024-02-21T01:37:07;12.00;58.50
19060;DHT22;9663;48.996;8.334;2024-02-21T01:39:33;12.00;58.60
19060;DHT22;9663;48.996;8.334;2024-02-21T01:41:59;12.00;58.70
19060;DHT22;9663;48.996;8.334;2024-02-21T01:44:25;12.00;58.70
19060;DHT22;9663;48.996;8.334;2024-02-21T01:46:52;12.00;58.80
19060;DHT22;9663;48.996;8.334;2024-02-21T01:49:19;12.00;58.90
19060;DHT22;9663;48.996;8.334;2024-02-21T01:51:46;12.00;58.80
19060;DHT22;9663;48.996;8.334;2024-02-21T01:54:14;11.90;58.80
19060;DHT22;9663;48.996;8.334;2024-02-21T01:56:42;11.90;58.90
19060;DHT22;9663;48.996;8.334;2024-02-21T01:59:08;11.90;58.90
19060;DHT22;9663;48.996;8.334;2024-02-21T02:01:34;11.90;59.00
19060;DHT22;9663;48.996;8.334;2024-02-21T02:04:00;11.90;59.10
19060;DHT22;9663;48.996;8.334;2024-02-21T02:06:26;11.80;59.70
19060;DHT22;9663;48.996;8.334;2024-02-21T02:08:53;11.80;59.20
19060;DHT22;9663;48.996;8.334;2024-02-21T02:11:19;11.80;59.20
19060;DHT22;9663;48.996;8.334;2024-02-21T02:13:45;11.80;59.20
19060;DHT22;9663;48.996;8.334;2024-02-21T02:16:11;11.70;59.20
19060;DHT22;9663;48.996;8.334;2024-02-21T02:18:36;11.70;59.20
19060;DHT22;9663;48.996;8.334;2024-02-21T02:21:05;11.70;59.20
19060;DHT22;9663;48.996;8.334;2024-02-21T02:23:36;11.70;59.30
19060;DHT22;9663;48.996;8.334;2024-02-21T02:26:02;11.70;59.20
19060;DHT22;9663;48.996;8.334;2024-02-21T02:28:28;11.70;59.20
19060;DHT22;9663;48.996;8.334;2024-02-21T02:30:53;11.70;59.20
19060;DHT22;9663;48.996;8.334;2024-02-21T02:33:19;11.70;59.30
19060;DHT22;9663;48.996;8.334;2024-02-21T02:35:45;11.70;59.30
19060;DHT22;9663;48.996;8.334;2024-02-21T02:38:12;11.70;59.20
19060;DHT22;9663;48.996;8.334;2024-02-21T02:40:39;11.60;59.20
19060;DHT22;9663;48.996;8.334;2024-02-21T02:43:06;11.70;59.20
19060;DHT22;9663;48.996;8.334;2024-02-21T02:45:32;11.70;59.20
19060;DHT22;9663;48.996;8.334;2024-02-21T02:47:58;11.70;59.20
19060;DHT22;9663;48.996;8.334;2024-02-21T02:50:25;11.70;59.20
19060;DHT22;9663;48.996;8.334;2024-02-21T02:52:51;11.60;59.20
19060;DHT22;9663;48.996;8.334;2024-02-21T02:55:18;11.60;59.20
19060;DHT22;9663;48.996;8.334;2024-02-21T02:57:44;11.60;59.10
19060;DHT22;9663;48.996;8.334;2024-02-21T03:00:13;11.60;59.10
19060;DHT22;9663;48.996;8.334;2024-02-21T03:02:41;11.60;59.10
19060;DHT22;9663;48.996;8.334;2024-02-21T03:05:15;11.60;59.10
19060;DHT22;9663;48.996;8.334;2024-02-21T03:07:45;11.60;59.20
19060;DHT22;9663;48.996;8.334;2024-02-21T03:10:12;11.60;59.10
19060;DHT22;9663;48.996;8.334;2024-02-21T03:12:39;11.60;59.10
19060;DHT22;9663;48.996;8.334;2024-02-21T03:15:05;11.60;59.10
19060;DHT22;9663;48.996;8.334;2024-02-21T03:17:31;11.60;59.10
19060;DHT22;9663;48.996;8.334;2024-02-21T03:19:59;11.60;59.00
19060;DHT22;9663;48.996;8.334;2024-02-21T03:22:26;11.60;59.10
19060;DHT22;9663;48.996;8.334;2024-02-21T03:24:51;11.50;59.00
19060;DHT22;9663;48.996;8.334;2024-02-21T03:27:17;11.50;59.10
19060;DHT22;9663;48.996;8.334;2024-02-21T03:29:43;11.50;59.10
19060;DHT22;9663;48.996;8.334;2024-02-21T03:32:09;11.50;59.10
19060;DHT22;9663;48.996;8.334;2024-02-21T03:34:35;11.50;59.10
19060;DHT22;9663;48.996;8.334;2024-02-21T03:37:00;11.60;59.20
19060;DHT22;9663;48.996;8.334;2024-02-21T03:39:26;11.50;59.10
19060;DHT22;9663;48.996;8.334;2024-02-21T03:41:52;11.50;59.10
19060;DHT22;9663;48.996;8.334;2024-02-21T03:44:17;11.60;59.10
19060;DHT22;9663;48.996;8.334;2024-02-21T03:46:43;11.60;59.00
19060;DHT22;9663;48.996;8.334;2024-02-21T03:49:09;11.50;59.00
19060;DHT22;9663;48.996;8.334;2024-02-21T03:51:34;11.60;59.00
19060;DHT22;9663;48.996;8.334;2024-02-21T03:54:00;11.50;59.00
19060;DHT22;9663;48.996;8.334;2024-02-21T03:56:26;11.50;59.00
19060;DHT22;9663;48.996;8.334;2024-02-21T03:58:52;11.50;59.00
19060;DHT22;9663;48.996;8.334;2024-02-21T04:01:17;11.50;59.00
19060;DHT22;9663;48.996;8.334;2024-02-21T04:03:43;11.40;59.00
19060;DHT22;9663;48.996;8.334;2024-02-21T04:06:09;11.40;59.10
19060;DHT22;9663;48.996;8.334;2024-02-21T04:08:35;11.30;59.00
19060;DHT22;9663;48.996;8.334;2024-02-21T04:11:01;11.30;59.00
19060;DHT22;9663;48.996;8.334;2024-02-21T04:13:27;11.20;59.00
19060;DHT22;9663;48.996;8.334;2024-02-21T04:15:53;11.20;59.00
19060;DHT22;9663;48.996;8.334;2024-02-21T04:18:19;11.10;59.00
19060;DHT22;9663;48.996;8.334;2024-02-21T04:20:44;11.10;59.10
19060;DHT22;9663;48.996;8.334;2024-02-21T04:23:10;11.00;59.10
19060;DHT22;9663;48.996;8.334;2024-02-21T04:25:36;11.00;59.10
19060;DHT22;9663;48.996;8.334;2024-02-21T04:28:02;11.00;59.20
19060;DHT22;9663;48.996;8.334;2024-02-21T04:30:28;10.90;59.20
19060;DHT22;9663;48.996;8.334;2024-02-21T04:32:54;10.90;59.20
19060;DHT22;9663;48.996;8.334;2024-02-21T04:35:20;10.90;59.20
19060;DHT22;9663;48.996;8.334;2024-02-21T04:37:46;10.80;59.20
19060;DHT22;9663;48.996;8.334;2024-02-21T04:40:12;10.80;59.30
19060;DHT22;9663;48.996;8.334;2024-02-21T04:42:39;10.80;59.40
19060;DHT22;9663;48.996;8.334;2024-02-21T04:45:05;10.80;59.40
19060;DHT22;9663;48.996;8.334;2024-02-21T04:47:34;10.80;59.40
19060;DHT22;9663;48.996;8.334;2024-02-21T04:50:00;10.70;59.40
19060;DHT22;9663;48.996;8.334;2024-02-21T04:52:26;10.70;59.40
19060;DHT22;9663;48.996;8.334;2024-02-21T04:54:51;10.70;59.40
19060;DHT22;9663;48.996;8.334;2024-02-21T04:57:17;10.70;59.40
19060;DHT22;9663;48.996;8.334;2024-02-21T04:59:46;10.70;59.40
19060;DHT22;9663;48.996;8.334;2024-02-21T05:02:15;10.70;59.50
19060;DHT22;9663;48.996;8.334;2024-02-21T05:04:42;10.70;59.40
19060;DHT22;9663;48.996;8.334;2024-02-21T05:07:09;10.60;59.50
19060;DHT22;9663;48.996;8.334;2024-02-21T05:09:37;10.60;60.10
19060;DHT22;9663;48.996;8.334;2024-02-21T05:12:03;10.60;59.40
19060;DHT22;9663;48.996;8.334;2024-02-21T05:14:29;10.60;59.50
19060;DHT22;9663;48.996;8.334;2024-02-21T05:16:55;10.60;59.50
19060;DHT22;9663;48.996;8.334;2024-02-21T05:19:20;10.50;59.50
19060;DHT22;9663;48.996;8.334;2024-02-21T05:21:46;10.50;60.20
19060;DHT22;9663;48.996;8.334;2024-02-21T05:24:12;10.50;59.60
19060;DHT22;9663;48.996;8.334;2024-02-21T05:26:38;10.50;59.60
19060;DHT22;9663;48.996;8.334;2024-02-21T05:29:03;10.50;59.60
19060;DHT22;9663;48.996;8.334;2024-02-21T05:34:18;10.40;59.70
19060;DHT22;9663;48.996;8.334;2024-02-21T05:36:45;10.40;59.60
19060;DHT22;9663;48.996;8.334;2024-02-21T05:39:11;10.40;59.70
19060;DHT22;9663;48.996;8.334;2024-02-21T05:41:37;10.40;59.70
19060;DHT22;9663;48.996;8.334;2024-02-21T05:44:03;10.40;59.70
19060;DHT22;9663;48.996;8.334;2024-02-21T05:46:29;10.30;59.70
19060;DHT22;9663;48.996;8.334;2024-02-21T05:48:55;10.30;59.80
19060;DHT22;9663;48.996;8.334;2024-02-21T05:51:20;10.30;59.70
19060;DHT22;9663;48.996;8.334;2024-02-21T05:53:46;10.30;59.80
19060;DHT22;9663;48.996;8.334;2024-02-21T05:56:13;10.30;59.80
19060;DHT22;9663;48.996;8.334;2024-02-21T05:58:40;10.30;59.80
19060;DHT22;9663;48.996;8.334;2024-02-21T06:01:05;10.30;59.90
19060;DHT22;9663;48.996;8.334;2024-02-21T06:03:35;10.30;59.90
19060;DHT22;9663;48.996;8.334;2024-02-21T06:06:04;10.20;59.90
19060;DHT22;9663;48.996;8.334;2024-02-21T06:08:30;10.30;60.00
19060;DHT22;9663;48.996;8.334;2024-02-21T06:10:56;10.20;59.90
19060;DHT22;9663;48.996;8.334;2024-02-21T06:13:23;10.20;59.90
19060;DHT22;9663;48.996;8.334;2024-02-21T06:15:49;10.20;60.00
19060;DHT22;9663;48.996;8.334;2024-02-21T06:18:17;10.20;60.00
19060;DHT22;9663;48.996;8.334;2024-02-21T06:20:43;10.20;60.00
19060;DHT22;9663;48.996;8.334;2024-02-21T06:23:09;10.20;60.00
19060;DHT22;9663;48.996;8.334;2024-02-21T06:25:35;10.20;60.00
19060;DHT22;9663;48.996;8.334;2024-02-21T06:28:01;10.20;60.90
19060;DHT22;9663;48.996;8.334;2024-02-21T06:30:26;10.20;60.00
19060;DHT22;9663;48.996;8.334;2024-02-21T06:32:52;10.20;60.00
19060;DHT22;9663;48.996;8.334;2024-02-21T06:35:21;10.20;60.00
19060;DHT22;9663;48.996;8.334;2024-02-21T06:37:47;10.20;60.00
19060;DHT22;9663;48.996;8.334;2024-02-21T06:40:17;10.10;60.00
19060;DHT22;9663;48.996;8.334;2024-02-21T06:42:47;10.10;60.00
19060;DHT22;9663;48.996;8.334;2024-02-21T06:45:12;10.10;60.10
19060;DHT22;9663;48.996;8.334;2024-02-21T06:47:38;10.10;60.10
19060;DHT22;9663;48.996;8.334;2024-02-21T06:50:04;10.10;60.20
19060;DHT22;9663;48.996;8.334;2024-02-21T06:52:30;10.10;60.20
19060;DHT22;9663;48.996;8.334;2024-02-21T06:54:56;10.10;60.30
19060;DHT22;9663;48.996;8.334;2024-02-21T06:57:22;10.10;60.30
19060;DHT22;9663;48.996;8.334;2024-02-21T06:59:48;10.10;60.40
19060;DHT22;9663;48.996;8.334;2024-02-21T07:02:14;10.10;60.30
19060;DHT22;9663;48.996;8.334;2024-02-21T07:04:39;10.10;60.20
19060;DHT22;9663;48.996;8.334;2024-02-21T07:07:05;10.10;60.30
19060;DHT22;9663;48.996;8.334;2024-02-21T07:09:31;10.20;60.30
19060;DHT22;9663;48.996;8.334;2024-02-21T07:11:59;10.20;60.40
19060;DHT22;9663;48.996;8.334;2024-02-21T07:14:25;10.20;60.50
19060;DHT22;9663;48.996;8.334;2024-02-21T07:16:51;10.20;60.40
19060;DHT22;9663;48.996;8.334;2024-02-21T07:19:17;10.20;60.40
19060;DHT22;9663;48.996;8.334;2024-02-21T07:21:43;10.30;60.50
19060;DHT22;9663;48.996;8.334;2024-02-21T07:24:09;10.30;60.50
19060;DHT22;9663;48.996;8.334;2024-02-21T07:26:34;10.40;60.50
19060;DHT22;9663;48.996;8.334;2024-02-21T07:29:00;10.40;60.40
19060;DHT22;9663;48.996;8.334;2024-02-21T07:31:26;10.50;60.50
19060;DHT22;9663;48.996;8.334;2024-02-21T07:33:51;10.50;60.40
19060;DHT22;9663;48.996;8.334;2024-02-21T07:36:29;10.60;60.50
19060;DHT22;9663;48.996;8.334;2024-02-21T07:38:58;10.60;60.60
19060;DHT22;9663;48.996;8.334;2024-02-21T07:41:25;10.70;60.40
19060;DHT22;9663;48.996;8.334;2024-02-21T07:43:52;10.70;60.40
19060;DHT22;9663;48.996;8.334;2024-02-21T07:46:18;10.80;60.50
19060;DHT22;9663;48.996;8.334;2024-02-21T07:48:45;10.80;60.30
19060;DHT22;9663;48.996;8.334;2024-02-21T07:51:12;10.90;60.30
19060;DHT22;9663;48.996;8.334;2024-02-21T07:53:39;10.90;60.30
19060;DHT22;9663;48.996;8.334;2024-02-21T07:56:12;11.00;60.30
19060;DHT22;9663;48.996;8.334;2024-02-21T07:58:37;11.10;60.30
19060;DHT22;9663;48.996;8.334;2024-02-21T08:01:03;11.20;60.30
19060;DHT22;9663;48.996;8.334;2024-02-21T08:03:29;11.20;60.20
19060;DHT22;9663;48.996;8.334;2024-02-21T08:05:54;11.30;60.20
19060;DHT22;9663;48.996;8.334;2024-02-21T08:08:20;11.40;60.20
19060;DHT22;9663;48.996;8.334;2024-02-21T08:10:48;11.50;60.10
19060;DHT22;9663;48.996;8.334;2024-02-21T08:13:14;11.60;60.00
19060;DHT22;9663;48.996;8.334;2024-02-21T08:15:40;11.60;59.80
19060;DHT22;9663;48.996;8.334;2024-02-21T08:18:07;11.70;59.90
19060;DHT22;9663;48.996;8.334;2024-02-21T08:20:33;11.70;59.90
19060;DHT22;9663;48.996;8.334;2024-02-21T08:22:59;11.70;59.80
19060;DHT22;9663;48.996;8.334;2024-02-21T08:25:25;11.80;59.80
19060;DHT22;9663;48.996;8.334;2024-02-21T08:27:51;11.90;59.80
19060;DHT22;9663;48.996;8.334;2024-02-21T08:30:17;11.90;59.70
19060;DHT22;9663;48.996;8.334;2024-02-21T08:32:43;12.00;59.80
19060;DHT22;9663;48.996;8.334;2024-02-21T08:35:09;12.10;59.80
19060;DHT22;9663;48.996;8.334;2024-02-21T08:37:35;12.10;59.70
19060;DHT22;9663;48.996;8.334;2024-02-21T08:40:00;12.20;59.70
19060;DHT22;9663;48.996;8.334;2024-02-21T08:42:36;12.30;60.30
19060;DHT22;9663;48.996;8.334;2024-02-21T08:45:04;12.30;59.60
19060;DHT22;9663;48.996;8.334;2024-02-21T08:47:30;12.50;59.60
19060;DHT22;9663;48.996;8.334;2024-02-21T08:49:56;12.50;59.60
19060;DHT22;9663;48.996;8.334;2024-02-21T08:52:22;12.60;59.60
19060;DHT22;9663;48.996;8.334;2024-02-21T08:54:47;12.70;59.50
19060;DHT22;9663;48.996;8.334;2024-02-21T08:57:13;12.80;59.40
19060;DHT22;9663;48.996;8.334;2024-02-21T08:59:39;12.90;59.30
19060;DHT22;9663;48.996;8.334;2024-02-21T09:02:05;12.90;59.00
19060;DHT22;9663;48.996;8.334;2024-02-21T09:04:32;13.00;58.90
19060;DHT22;9663;48.996;8.334;2024-02-21T09:06:59;13.10;58.80
19060;DHT22;9663;48.996;8.334;2024-02-21T09:09:25;13.10;58.80
19060;DHT22;9663;48.996;8.334;2024-02-21T09:11:51;13.20;58.70
19060;DHT22;9663;48.996;8.334;2024-02-21T09:14:17;13.20;58.70
19060;DHT22;9663;48.996;8.334;2024-02-21T09:16:42;13.30;58.90
19060;DHT22;9663;48.996;8.334;2024-02-21T09:19:09;13.40;58.80
19060;DHT22;9663;48.996;8.334;2024-02-21T09:21:37;13.50;58.80
19060;DHT22;9663;48.996;8.334;2024-02-21T09:24:04;13.60;58.50
19060;DHT22;9663;48.996;8.334;2024-02-21T09:26:30;13.70;58.50
19060;DHT22;9663;48.996;8.334;2024-02-21T09:28:56;13.80;58.10
19060;DHT22;9663;48.996;8.334;2024-02-21T09:31:22;13.80;57.90
19060;DHT22;9663;48.996;8.334;2024-02-21T09:33:47;13.80;58.10
19060;DHT22;9663;48.996;8.334;2024-02-21T09:36:14;13.90;57.90
19060;DHT22;9663;48.996;8.334;2024-02-21T09:38:40;13.90;57.80
19060;DHT22;9663;48.996;8.334;2024-02-21T09:41:26;14.00;57.90
19060;DHT22;9663;48.996;8.334;2024-02-21T09:43:56;14.10;57.70
19060;DHT22;9663;48.996;8.334;2024-02-21T09:46:45;14.20;57.80
19060;DHT22;9663;48.996;8.334;2024-02-21T09:49:29;14.30;57.70
19060;DHT22;9663;48.996;8.334;2024-02-21T09:51:57;14.30;57.60
19060;DHT22;9663;48.996;8.334;2024-02-21T09:54:28;14.50;57.60
19060;DHT22;9663;48.996;8.334;2024-02-21T09:56:56;14.60;57.40
19060;DHT22;9663;48.996;8.334;2024-02-21T09:59:23;14.70;57.30
19060;DHT22;9663;48.996;8.334;2024-02-21T10:01:49;14.70;56.90
19060;DHT22;9663;48.996;8.334;2024-02-21T10:04:16;14.80;56.90
19060;DHT22;9663;48.996;8.334;2024-02-21T10:06:42;14.80;56.90
19060;DHT22;9663;48.996;8.334;2024-02-21T10:09:08;14.80;56.70
19060;DHT22;9663;48.996;8.334;2024-02-21T10:11:34;14.80;56.50
19060;DHT22;9663;48.996;8.334;2024-02-21T10:14:06;14.80;56.50
19060;DHT22;9663;48.996;8.334;2024-02-21T10:16:33;14.80;56.50
19060;DHT22;9663;48.996;8.334;2024-02-21T10:18:59;14.90;56.90
19060;DHT22;9663;48.996;8.334;2024-02-21T10:21:25;15.00;56.70
19060;DHT22;9663;48.996;8.334;2024-02-21T10:23:51;15.10;56.40
19060;DHT22;9663;48.996;8.334;2024-02-21T10:26:18;15.30;56.70
19060;DHT22;9663;48.996;8.334;2024-02-21T10:28:46;15.40;56.00
19060;DHT22;9663;48.996;8.334;2024-02-21T10:31:24;15.50;55.80
19060;DHT22;9663;48.996;8.334;2024-02-21T10:33:58;15.60;55.60
19060;DHT22;9663;48.996;8.334;2024-02-21T10:36:30;15.70;55.20
19060;DHT22;9663;48.996;8.334;2024-02-21T10:38:56;15.70;55.10
19060;DHT22;9663;48.996;8.334;2024-02-21T10:41:23;15.70;55.20
19060;DHT22;9663;48.996;8.334;2024-02-21T10:43:54;15.70;55.10
19060;DHT22;9663;48.996;8.334;2024-02-21T10:46:21;15.70;55.10
19060;DHT22;9663;48.996;8.334;2024-02-21T10:49:07;15.70;55.30
19060;DHT22;9663;48.996;8.334;2024-02-21T10:51:55;15.70;55.00
19060;DHT22;9663;48.996;8.334;2024-02-21T10:55:10;15.80;55.20
19060;DHT22;9663;48.996;8.334;2024-02-21T10:57:41;15.80;54.90
19060;DHT22;9663;48.996;8.334;2024-02-21T11:00:09;15.90;55.10
19060;DHT22;9663;48.996;8.334;2024-02-21T11:02:38;15.90;54.90
19060;DHT22;9663;48.996;8.334;2024-02-21T11:05:05;15.90;55.00
19060;DHT22;9663;48.996;8.334;2024-02-21T11:07:36;15.90;55.00
19060;DHT22;9663;48.996;8.334;2024-02-21T11:10:03;16.00;54.80
19060;DHT22;9663;48.996;8.334;2024-02-21T11:12:32;16.00;55.00
19060;DHT22;9663;48.996;8.334;2024-02-21T11:15:08;16.00;54.60
19060;DHT22;9663;48.996;8.334;2024-02-21T11:17:34;16.10;54.40
19060;DHT22;9663;48.996;8.334;2024-02-21T11:20:11;16.10;54.70
19060;DHT22;9663;48.996;8.334;2024-02-21T11:22:43;16.20;54.40
19060;DHT22;9663;48.996;8.334;2024-02-21T11:25:09;16.20;54.60
19060;DHT22;9663;48.996;8.334;2024-02-21T11:27:37;16.30;54.60
19060;DHT22;9663;48.996;8.334;2024-02-21T11:30:05;16.30;54.40
19060;DHT22;9663;48.996;8.334;2024-02-21T11:32:31;16.30;54.40
19060;DHT22;9663;48.996;8.334;2024-02-21T11:34:58;16.40;54.30
19060;DHT22;9663;48.996;8.334;2024-02-21T11:37:28;16.40;54.20
19060;DHT22;9663;48.996;8.334;2024-02-21T11:39:57;16.40;53.90
19060;DHT22;9663;48.996;8.334;2024-02-21T11:42:25;16.30;53.70
19060;DHT22;9663;48.996;8.334;2024-02-21T11:44:52;16.30;53.60
19060;DHT22;9663;48.996;8.334;2024-02-21T11:47:19;16.30;53.50
19060;DHT22;9663;48.996;8.334;2024-02-21T11:49:48;16.30;53.60
19060;DHT22;9663;48.996;8.334;2024-02-21T11:52:25;16.20;53.50
19060;DHT22;9663;48.996;8.334;2024-02-21T11:54:54;16.10;53.60
19060;DHT22;9663;48.996;8.334;2024-02-21T11:57:22;16.20;53.70
19060;DHT22;9663;48.996;8.334;2024-02-21T11:59:48;16.20;54.10
19060;DHT22;9663;48.996;8.334;2024-02-21T12:02:15;16.20;54.00
19060;DHT22;9663;48.996;8.334;2024-02-21T12:04:42;16.30;53.90
19060;DHT22;9663;48.996;8.334;2024-02-21T12:07:09;16.30;53.90
19060;DHT22;9663;48.996;8.334;2024-02-21T12:09:35;16.40;53.80
19060;DHT22;9663;48.996;8.334;2024-02-21T12:12:02;16.40;53.70
19060;DHT22;9663;48.996;8.334;2024-02-21T12:14:31;16.40;53.50
19060;DHT22;9663;48.996;8.334;2024-02-21T12:16:58;16.40;53.30
19060;DHT22;9663;48.996;8.334;2024-02-21T12:19:25;16.60;53.20
19060;DHT22;9663;48.996;8.334;2024-02-21T12:21:51;16.60;53.30
19060;DHT22;9663;48.996;8.334;2024-02-21T12:24:25;16.70;53.30
19060;DHT22;9663;48.996;8.334;2024-02-21T12:26:53;16.80;52.40
19060;DHT22;9663;48.996;8.334;2024-02-21T12:29:20;16.80;52.40
19060;DHT22;9663;48.996;8.334;2024-02-21T12:31:47;16.70;52.40
19060;DHT22;9663;48.996;8.334;2024-02-21T12:34:14;16.70;52.60
19060;DHT22;9663;48.996;8.334;2024-02-21T12:36:42;16.70;52.70
19060;DHT22;9663;48.996;8.334;2024-02-21T12:39:09;16.70;52.80
19060;DHT22;9663;48.996;8.334;2024-02-21T12:41:36;16.80;52.70
19060;DHT22;9663;48.996;8.334;2024-02-21T12:44:04;16.80;52.70
19060;DHT22;9663;48.996;8.334;2024-02-21T12:46:33;16.90;51.90
19060;DHT22;9663;48.996;8.334;2024-02-21T12:48:59;16.90;52.20
19060;DHT22;9663;48.996;8.334;2024-02-21T12:51:25;16.90;52.00
19060;DHT22;9663;48.996;8.334;2024-02-21T12:53:51;16.90;52.10
19060;DHT22;9663;48.996;8.334;2024-02-21T12:56:17;16.90;51.80
19060;DHT22;9663;48.996;8.334;2024-02-21T12:58:42;16.90;51.80
19060;DHT22;9663;48.996;8.334;2024-02-21T13:01:08;16.80;51.80
19060;DHT22;9663;48.996;8.334;2024-02-21T13:03:34;16.80;51.90
19060;DHT22;9663;48.996;8.334;2024-02-21T13:06:00;16.80;51.70
19060;DHT22;9663;48.996;8.334;2024-02-21T13:08:25;16.80;51.80
19060;DHT22;9663;48.996;8.334;2024-02-21T13:10:51;16.70;51.90
19060;DHT22;9663;48.996;8.334;2024-02-21T13:13:17;16.70;52.00
19060;DHT22;9663;48.996;8.334;2024-02-21T13:15:43;16.70;51.90
19060;DHT22;9663;48.996;8.334;2024-02-21T13:18:08;16.80;52.00
19060;DHT22;9663;48.996;8.334;2024-02-21T13:20:35;16.80;51.90
19060;DHT22;9663;48.996;8.334;2024-02-21T13:23:01;16.80;52.00
19060;DHT22;9663;48.996;8.334;2024-02-21T13:25:27;16.80;51.70
19060;DHT22;9663;48.996;8.334;2024-02-21T13:27:53;16.70;51.50
19060;DHT22;9663;48.996;8.334;2024-02-21T13:30:19;16.60;51.40
19060;DHT22;9663;48.996;8.334;2024-02-21T13:32:45;16.60;51.40
19060;DHT22;9663;48.996;8.334;2024-02-21T13:35:14;16.50;51.40
19060;DHT22;9663;48.996;8.334;2024-02-21T13:37:40;16.40;51.60
19060;DHT22;9663;48.996;8.334;2024-02-21T13:40:07;16.40;51.70
19060;DHT22;9663;48.996;8.334;2024-02-21T13:42:39;16.40;51.50
19060;DHT22;9663;48.996;8.334;2024-02-21T13:45:06;16.40;51.60
19060;DHT22;9663;48.996;8.334;2024-02-21T13:47:33;16.30;51.70
19060;DHT22;9663;48.996;8.334;2024-02-21T13:49:59;16.30;51.80
19060;DHT22;9663;48.996;8.334;2024-02-21T13:52:24;16.30;51.80
19060;DHT22;9663;48.996;8.334;2024-02-21T13:54:53;16.30;51.80
19060;DHT22;9663;48.996;8.334;2024-02-21T13:57:19;16.30;51.90
19060;DHT22;9663;48.996;8.334;2024-02-21T13:59:44;16.30;51.90
19060;DHT22;9663;48.996;8.334;2024-02-21T14:02:10;16.30;51.80
19060;DHT22;9663;48.996;8.334;2024-02-21T14:04:36;16.40;51.80
19060;DHT22;9663;48.996;8.334;2024-02-21T14:07:01;16.30;51.70
19060;DHT22;9663;48.996;8.334;2024-02-21T14:09:28;16.40;51.70
19060;DHT22;9663;48.996;8.334;2024-02-21T14:11:58;16.40;51.80
19060;DHT22;9663;48.996;8.334;2024-02-21T14:14:24;16.40;52.40
19060;DHT22;9663;48.996;8.334;2024-02-21T14:16:50;16.40;51.70
19060;DHT22;9663;48.996;8.334;2024-02-21T14:19:15;16.40;51.70
19060;DHT22;9663;48.996;8.334;2024-02-21T14:21:41;16.40;51.70
19060;DHT22;9663;48.996;8.334;2024-02-21T14:24:07;16.40;51.50
19060;DHT22;9663;48.996;8.334;2024-02-21T14:26:33;16.40;51.40
19060;DHT22;9663;48.996;8.334;2024-02-21T14:29:01;16.40;51.60
19060;DHT22;9663;48.996;8.334;2024-02-21T14:31:29;16.40;51.70
19060;DHT22;9663;48.996;8.334;2024-02-21T14:33:56;16.40;51.90
19060;DHT22;9663;48.996;8.334;2024-02-21T14:36:22;16.50;51.90
19060;DHT22;9663;48.996;8.334;2024-02-21T14:38:49;16.50;51.60
19060;DHT22;9663;48.996;8.334;2024-02-21T14:41:18;16.50;51.60
19060;DHT22;9663;48.996;8.334;2024-02-21T14:43:44;16.50;51.50
19060;DHT22;9663;48.996;8.334;2024-02-21T14:46:10;16.50;51.40
19060;DHT22;9663;48.996;8.334;2024-02-21T14:48:37;16.60;51.60
19060;DHT22;9663;48.996;8.334;2024-02-21T14:51:04;16.50;51.50
19060;DHT22;9663;48.996;8.334;2024-02-21T14:53:30;16.50;51.50
19060;DHT22;9663;48.996;8.334;2024-02-21T14:55:56;16.60;51.60
19060;DHT22;9663;48.996;8.334;2024-02-21T14:58:23;16.60;51.50
19060;DHT22;9663;48.996;8.334;2024-02-21T15:00:49;16.60;51.50
19060;DHT22;9663;48.996;8.334;2024-02-21T15:03:18;16.60;51.40
19060;DHT22;9663;48.996;8.334;2024-02-21T15:05:47;16.60;51.30
19060;DHT22;9663;48.996;8.334;2024-02-21T15:08:13;16.60;51.40
19060;DHT22;9663;48.996;8.334;2024-02-21T15:10:42;16.60;51.40
19060;DHT22;9663;48.996;8.334;2024-02-21T15:13:08;16.60;51.40
19060;DHT22;9663;48.996;8.334;2024-02-21T15:15:34;16.60;51.40
19060;DHT22;9663;48.996;8.334;2024-02-21T15:17:59;16.60;51.20
19060;DHT22;9663;48.996;8.334;2024-02-21T15:20:25;16.60;51.30
19060;DHT22;9663;48.996;8.334;2024-02-21T15:22:51;16.50;51.30
19060;DHT22;9663;48.996;8.334;2024-02-21T15:25:17;16.50;51.40
19060;DHT22;9663;48.996;8.334;2024-02-21T15:27:44;16.50;51.40
19060;DHT22;9663;48.996;8.334;2024-02-21T15:30:11;16.50;51.60
19060;DHT22;9663;48.996;8.334;2024-02-21T15:32:41;16.50;51.60
19060;DHT22;9663;48.996;8.334;2024-02-21T15:35:09;16.50;51.60
19060;DHT22;9663;48.996;8.334;2024-02-21T15:37:39;16.40;51.60
19060;DHT22;9663;48.996;8.334;2024-02-21T15:40:06;16.50;51.70
19060;DHT22;9663;48.996;8.334;2024-02-21T15:42:36;16.40;51.60
19060;DHT22;9663;48.996;8.334;2024-02-21T15:45:02;16.40;51.70
19060;DHT22;9663;48.996;8.334;2024-02-21T15:47:30;16.40;51.70